Terminal Aerodrome Forecast
Issued by NWS Jackson, MS

Home | Current Version | Previous Version | Text Only | Print | Product List | Glossary On
Versions: 1 2 3 4 5 6 7 8 9 10 11 12 13
000
FTUS44 KMEG 261742
TAFTUP
TAF
KTUP 261742Z 2618/2718 VRB05KT P6SM VCTS SCT040CB BKN250
      TEMPO 2618/2622 2SM TSRA BKN025CB
     FM270000 11003KT P6SM SKC
      TEMPO 2709/2713 1SM BR
     FM271600 15005KT P6SM SCT040=

USA.gov is the U.S. government's official web portal to all federal, state and local government web resources and services.